sensor_id;sensor_type;location;lat;lon;timestamp;temperature;humidity
54960;DHT22;40860;51.710;8.736;2022-08-19T00:02:41;20.40;91.10
54960;DHT22;40860;51.710;8.736;2022-08-19T00:06:51;20.30;91.20
54960;DHT22;40860;51.710;8.736;2022-08-19T00:10:55;20.30;91.30
54960;DHT22;40860;51.710;8.736;2022-08-19T00:14:58;20.20;91.70
54960;DHT22;40860;51.710;8.736;2022-08-19T00:19:02;20.10;91.70
54960;DHT22;40860;51.710;8.736;2022-08-19T00:23:05;20.00;91.80
54960;DHT22;40860;51.710;8.736;2022-08-19T00:27:10;20.00;92.00
54960;DHT22;40860;51.710;8.736;2022-08-19T00:31:27;20.00;92.00
54960;DHT22;40860;51.710;8.736;2022-08-19T00:35:30;20.00;91.80
54960;DHT22;40860;51.710;8.736;2022-08-19T00:39:33;20.00;91.90
54960;DHT22;40860;51.710;8.736;2022-08-19T00:43:37;19.90;92.10
54960;DHT22;40860;51.710;8.736;2022-08-19T00:47:41;19.90;92.10
54960;DHT22;40860;51.710;8.736;2022-08-19T00:51:47;19.80;92.30
54960;DHT22;40860;51.710;8.736;2022-08-19T00:55:55;19.70;92.70
54960;DHT22;40860;51.710;8.736;2022-08-19T01:00:00;19.60;92.90
54960;DHT22;40860;51.710;8.736;2022-08-19T01:04:04;19.50;93.00
54960;DHT22;40860;51.710;8.736;2022-08-19T01:08:07;19.40;93.20
54960;DHT22;40860;51.710;8.736;2022-08-19T01:12:10;19.40;93.30
54960;DHT22;40860;51.710;8.736;2022-08-19T01:16:17;19.30;93.50
54960;DHT22;40860;51.710;8.736;2022-08-19T01:20:22;19.20;93.80
54960;DHT22;40860;51.710;8.736;2022-08-19T01:24:27;19.10;94.00
54960;DHT22;40860;51.710;8.736;2022-08-19T01:28:32;19.10;94.20
54960;DHT22;40860;51.710;8.736;2022-08-19T01:32:43;19.00;94.30
54960;DHT22;40860;51.710;8.736;2022-08-19T01:36:47;19.00;94.40
54960;DHT22;40860;51.710;8.736;2022-08-19T01:40:52;18.90;94.50
54960;DHT22;40860;51.710;8.736;2022-08-19T01:44:55;18.90;94.40
54960;DHT22;40860;51.710;8.736;2022-08-19T01:48:58;18.80;94.50
54960;DHT22;40860;51.710;8.736;2022-08-19T01:53:04;18.80;94.70
54960;DHT22;40860;51.710;8.736;2022-08-19T01:57:12;18.80;95.00
54960;DHT22;40860;51.710;8.736;2022-08-19T02:01:17;18.70;94.90
54960;DHT22;40860;51.710;8.736;2022-08-19T02:05:20;18.70;94.90
54960;DHT22;40860;51.710;8.736;2022-08-19T02:09:23;18.80;94.80
54960;DHT22;40860;51.710;8.736;2022-08-19T02:13:27;18.80;94.90
54960;DHT22;40860;51.710;8.736;2022-08-19T02:17:30;18.80;94.90
54960;DHT22;40860;51.710;8.736;2022-08-19T02:21:34;18.80;94.80
54960;DHT22;40860;51.710;8.736;2022-08-19T02:25:37;18.60;95.00
54960;DHT22;40860;51.710;8.736;2022-08-19T02:29:41;18.60;95.30
54960;DHT22;40860;51.710;8.736;2022-08-19T02:33:44;18.50;95.50
54960;DHT22;40860;51.710;8.736;2022-08-19T02:37:48;18.40;95.60
54960;DHT22;40860;51.710;8.736;2022-08-19T02:42:09;18.40;95.80
54960;DHT22;40860;51.710;8.736;2022-08-19T02:46:15;18.40;95.90
54960;DHT22;40860;51.710;8.736;2022-08-19T02:50:22;18.40;95.80
54960;DHT22;40860;51.710;8.736;2022-08-19T02:54:25;18.40;95.80
54960;DHT22;40860;51.710;8.736;2022-08-19T02:58:29;18.30;95.80
54960;DHT22;40860;51.710;8.736;2022-08-19T03:02:33;18.30;95.90
54960;DHT22;40860;51.710;8.736;2022-08-19T03:06:36;18.20;96.00
54960;DHT22;40860;51.710;8.736;2022-08-19T03:10:41;18.20;96.10
54960;DHT22;40860;51.710;8.736;2022-08-19T03:14:45;18.10;96.20
54960;DHT22;40860;51.710;8.736;2022-08-19T03:18:51;18.20;96.20
54960;DHT22;40860;51.710;8.736;2022-08-19T03:22:54;18.20;96.30
54960;DHT22;40860;51.710;8.736;2022-08-19T03:26:58;18.10;96.30
54960;DHT22;40860;51.710;8.736;2022-08-19T03:31:04;18.00;96.40
54960;DHT22;40860;51.710;8.736;2022-08-19T03:35:29;17.90;96.40
54960;DHT22;40860;51.710;8.736;2022-08-19T03:39:32;17.90;96.40
54960;DHT22;40860;51.710;8.736;2022-08-19T03:43:37;17.90;96.40
54960;DHT22;40860;51.710;8.736;2022-08-19T03:47:40;17.80;96.50
54960;DHT22;40860;51.710;8.736;2022-08-19T03:51:45;17.80;96.70
54960;DHT22;40860;51.710;8.736;2022-08-19T03:55:48;17.80;96.70
54960;DHT22;40860;51.710;8.736;2022-08-19T03:59:51;17.70;96.80
54960;DHT22;40860;51.710;8.736;2022-08-19T04:03:56;17.70;96.70
54960;DHT22;40860;51.710;8.736;2022-08-19T04:08:02;17.60;96.70
54960;DHT22;40860;51.710;8.736;2022-08-19T04:12:05;17.50;96.90
54960;DHT22;40860;51.710;8.736;2022-08-19T04:16:08;17.50;97.20
54960;DHT22;40860;51.710;8.736;2022-08-19T04:20:12;17.50;97.30
54960;DHT22;40860;51.710;8.736;2022-08-19T04:24:16;17.50;97.30
54960;DHT22;40860;51.710;8.736;2022-08-19T04:28:19;17.50;97.40
54960;DHT22;40860;51.710;8.736;2022-08-19T04:32:22;17.50;97.50
54960;DHT22;40860;51.710;8.736;2022-08-19T04:36:26;17.40;97.60
54960;DHT22;40860;51.710;8.736;2022-08-19T04:40:31;17.50;97.70
54960;DHT22;40860;51.710;8.736;2022-08-19T04:44:51;17.50;97.70
54960;DHT22;40860;51.710;8.736;2022-08-19T04:48:58;17.50;97.60
54960;DHT22;40860;51.710;8.736;2022-08-19T04:53:11;17.50;97.70
54960;DHT22;40860;51.710;8.736;2022-08-19T04:57:15;17.50;97.50
54960;DHT22;40860;51.710;8.736;2022-08-19T05:01:21;17.60;97.60
54960;DHT22;40860;51.710;8.736;2022-08-19T05:05:24;17.60;97.60
54960;DHT22;40860;51.710;8.736;2022-08-19T05:09:27;17.60;97.50
54960;DHT22;40860;51.710;8.736;2022-08-19T05:13:52;17.70;97.50
54960;DHT22;40860;51.710;8.736;2022-08-19T05:17:55;17.60;97.50
54960;DHT22;40860;51.710;8.736;2022-08-19T05:22:14;17.70;97.60
54960;DHT22;40860;51.710;8.736;2022-08-19T05:26:36;17.70;97.70
54960;DHT22;40860;51.710;8.736;2022-08-19T05:30:40;17.80;97.60
54960;DHT22;40860;51.710;8.736;2022-08-19T05:34:48;17.90;97.50
54960;DHT22;40860;51.710;8.736;2022-08-19T05:38:51;18.10;97.50
54960;DHT22;40860;51.710;8.736;2022-08-19T05:42:54;18.90;97.40
54960;DHT22;40860;51.710;8.736;2022-08-19T05:46:59;19.40;95.90
54960;DHT22;40860;51.710;8.736;2022-08-19T05:51:04;19.20;95.40
54960;DHT22;40860;51.710;8.736;2022-08-19T05:55:07;19.00;95.40
54960;DHT22;40860;51.710;8.736;2022-08-19T05:59:11;18.80;96.00
54960;DHT22;40860;51.710;8.736;2022-08-19T06:03:15;18.90;96.00
54960;DHT22;40860;51.710;8.736;2022-08-19T06:07:19;19.20;96.10
54960;DHT22;40860;51.710;8.736;2022-08-19T06:11:24;19.40;95.50
54960;DHT22;40860;51.710;8.736;2022-08-19T06:15:27;19.50;95.10
54960;DHT22;40860;51.710;8.736;2022-08-19T06:19:31;19.50;94.90
54960;DHT22;40860;51.710;8.736;2022-08-19T06:23:34;19.40;94.70
54960;DHT22;40860;51.710;8.736;2022-08-19T06:27:37;19.40;94.90
54960;DHT22;40860;51.710;8.736;2022-08-19T06:32:02;19.30;94.90
54960;DHT22;40860;51.710;8.736;2022-08-19T06:36:08;19.30;95.10
54960;DHT22;40860;51.710;8.736;2022-08-19T06:40:18;19.30;95.00
54960;DHT22;40860;51.710;8.736;2022-08-19T06:44:24;19.30;95.10
54960;DHT22;40860;51.710;8.736;2022-08-19T06:48:32;19.30;95.10
54960;DHT22;40860;51.710;8.736;2022-08-19T06:52:47;19.20;95.10
54960;DHT22;40860;51.710;8.736;2022-08-19T06:56:51;19.20;95.00
54960;DHT22;40860;51.710;8.736;2022-08-19T07:00:54;19.30;95.10
54960;DHT22;40860;51.710;8.736;2022-08-19T07:04:59;19.40;94.90
54960;DHT22;40860;51.710;8.736;2022-08-19T07:09:10;19.40;94.80
54960;DHT22;40860;51.710;8.736;2022-08-19T07:13:14;19.50;94.90
54960;DHT22;40860;51.710;8.736;2022-08-19T07:17:17;19.70;94.60
54960;DHT22;40860;51.710;8.736;2022-08-19T07:21:24;20.10;94.30
54960;DHT22;40860;51.710;8.736;2022-08-19T07:25:31;20.20;93.80
54960;DHT22;40860;51.710;8.736;2022-08-19T07:29:35;20.10;93.70
54960;DHT22;40860;51.710;8.736;2022-08-19T07:33:38;20.10;93.80
54960;DHT22;40860;51.710;8.736;2022-08-19T07:37:44;20.30;93.70
54960;DHT22;40860;51.710;8.736;2022-08-19T07:41:48;20.40;93.70
54960;DHT22;40860;51.710;8.736;2022-08-19T07:45:52;20.70;93.30
54960;DHT22;40860;51.710;8.736;2022-08-19T07:49:57;21.00;92.70
54960;DHT22;40860;51.710;8.736;2022-08-19T07:54:00;21.10;92.50
54960;DHT22;40860;51.710;8.736;2022-08-19T07:58:04;21.10;92.20
54960;DHT22;40860;51.710;8.736;2022-08-19T08:02:08;21.00;92.20
54960;DHT22;40860;51.710;8.736;2022-08-19T08:06:12;21.00;92.00
54960;DHT22;40860;51.710;8.736;2022-08-19T08:10:33;21.00;92.30
54960;DHT22;40860;51.710;8.736;2022-08-19T08:14:40;21.10;92.20
54960;DHT22;40860;51.710;8.736;2022-08-19T08:18:44;21.40;91.90
54960;DHT22;40860;51.710;8.736;2022-08-19T08:22:53;22.00;91.10
54960;DHT22;40860;51.710;8.736;2022-08-19T08:27:14;22.70;90.10
54960;DHT22;40860;51.710;8.736;2022-08-19T08:31:20;23.10;86.60
54960;DHT22;40860;51.710;8.736;2022-08-19T08:35:23;23.60;85.60
54960;DHT22;40860;51.710;8.736;2022-08-19T08:39:26;23.90;83.70
54960;DHT22;40860;51.710;8.736;2022-08-19T08:43:33;24.30;81.00
54960;DHT22;40860;51.710;8.736;2022-08-19T08:47:40;24.30;78.90
54960;DHT22;40860;51.710;8.736;2022-08-19T08:51:47;24.40;80.00
54960;DHT22;40860;51.710;8.736;2022-08-19T08:56:03;24.50;78.90
54960;DHT22;40860;51.710;8.736;2022-08-19T09:00:11;24.50;78.00
54960;DHT22;40860;51.710;8.736;2022-08-19T09:04:19;24.60;76.60
54960;DHT22;40860;51.710;8.736;2022-08-19T09:08:34;24.90;76.50
54960;DHT22;40860;51.710;8.736;2022-08-19T09:12:47;24.80;76.00
54960;DHT22;40860;51.710;8.736;2022-08-19T09:16:54;24.60;75.70
54960;DHT22;40860;51.710;8.736;2022-08-19T09:20:59;24.60;75.70
54960;DHT22;40860;51.710;8.736;2022-08-19T09:25:03;25.00;76.00
54960;DHT22;40860;51.710;8.736;2022-08-19T09:29:07;25.40;74.00
54960;DHT22;40860;51.710;8.736;2022-08-19T09:33:10;25.60;71.60
54960;DHT22;40860;51.710;8.736;2022-08-19T09:37:14;25.70;71.30
54960;DHT22;40860;51.710;8.736;2022-08-19T09:41:19;25.70;69.80
54960;DHT22;40860;51.710;8.736;2022-08-19T09:45:24;25.30;70.50
54960;DHT22;40860;51.710;8.736;2022-08-19T09:49:27;25.60;69.60
54960;DHT22;40860;51.710;8.736;2022-08-19T09:53:32;26.20;68.30
54960;DHT22;40860;51.710;8.736;2022-08-19T09:57:38;26.20;67.10
54960;DHT22;40860;51.710;8.736;2022-08-19T10:01:41;25.90;67.30
54960;DHT22;40860;51.710;8.736;2022-08-19T10:05:46;26.00;65.60
54960;DHT22;40860;51.710;8.736;2022-08-19T10:09:57;26.40;65.20
54960;DHT22;40860;51.710;8.736;2022-08-19T10:14:00;27.00;64.10
54960;DHT22;40860;51.710;8.736;2022-08-19T10:18:03;27.10;61.50
54960;DHT22;40860;51.710;8.736;2022-08-19T10:22:07;26.40;62.60
54960;DHT22;40860;51.710;8.736;2022-08-19T10:26:17;26.40;63.20
54960;DHT22;40860;51.710;8.736;2022-08-19T10:30:20;26.90;62.40
54960;DHT22;40860;51.710;8.736;2022-08-19T10:34:28;27.10;61.10
54960;DHT22;40860;51.710;8.736;2022-08-19T10:38:31;27.30;59.80
54960;DHT22;40860;51.710;8.736;2022-08-19T10:42:37;27.10;60.90
54960;DHT22;40860;51.710;8.736;2022-08-19T10:46:41;27.50;60.00
54960;DHT22;40860;51.710;8.736;2022-08-19T10:50:50;27.60;59.10
54960;DHT22;40860;51.710;8.736;2022-08-19T10:55:24;27.40;58.80
54960;DHT22;40860;51.710;8.736;2022-08-19T10:59:46;27.40;59.30
54960;DHT22;40860;51.710;8.736;2022-08-19T11:03:49;27.00;59.50
54960;DHT22;40860;51.710;8.736;2022-08-19T11:07:52;26.90;60.10
54960;DHT22;40860;51.710;8.736;2022-08-19T11:11:55;26.60;60.70
54960;DHT22;40860;51.710;8.736;2022-08-19T11:16:08;26.50;61.20
54960;DHT22;40860;51.710;8.736;2022-08-19T11:20:12;26.50;59.40
54960;DHT22;40860;51.710;8.736;2022-08-19T11:24:17;26.40;59.80
54960;DHT22;40860;51.710;8.736;2022-08-19T11:28:21;26.60;60.00
54960;DHT22;40860;51.710;8.736;2022-08-19T11:32:26;26.70;59.80
54960;DHT22;40860;51.710;8.736;2022-08-19T11:36:29;27.00;59.00
54960;DHT22;40860;51.710;8.736;2022-08-19T11:40:32;27.30;58.30
54960;DHT22;40860;51.710;8.736;2022-08-19T11:44:35;27.40;57.80
54960;DHT22;40860;51.710;8.736;2022-08-19T11:48:40;27.40;58.00
54960;DHT22;40860;51.710;8.736;2022-08-19T11:52:43;26.70;58.00
54960;DHT22;40860;51.710;8.736;2022-08-19T11:56:46;26.30;57.70
54960;DHT22;40860;51.710;8.736;2022-08-19T12:00:51;26.30;57.70
54960;DHT22;40860;51.710;8.736;2022-08-19T12:04:55;26.90;57.60
54960;DHT22;40860;51.710;8.736;2022-08-19T12:09:02;27.20;55.20
54960;DHT22;40860;51.710;8.736;2022-08-19T12:13:05;27.50;54.50
54960;DHT22;40860;51.710;8.736;2022-08-19T12:17:09;27.80;53.90
54960;DHT22;40860;51.710;8.736;2022-08-19T12:21:18;27.90;51.10
54960;DHT22;40860;51.710;8.736;2022-08-19T12:25:22;27.80;50.30
54960;DHT22;40860;51.710;8.736;2022-08-19T12:29:25;27.70;50.80
54960;DHT22;40860;51.710;8.736;2022-08-19T12:33:31;27.90;51.00
54960;DHT22;40860;51.710;8.736;2022-08-19T12:37:35;28.10;50.20
54960;DHT22;40860;51.710;8.736;2022-08-19T12:41:38;27.90;50.00
54960;DHT22;40860;51.710;8.736;2022-08-19T12:45:54;27.90;50.00
54960;DHT22;40860;51.710;8.736;2022-08-19T12:49:57;28.00;50.20
54960;DHT22;40860;51.710;8.736;2022-08-19T12:54:01;28.20;50.20
54960;DHT22;40860;51.710;8.736;2022-08-19T12:58:05;28.30;50.00
54960;DHT22;40860;51.710;8.736;2022-08-19T13:02:08;28.40;50.50
54960;DHT22;40860;51.710;8.736;2022-08-19T13:06:11;28.50;49.90
54960;DHT22;40860;51.710;8.736;2022-08-19T13:10:21;28.40;49.80
54960;DHT22;40860;51.710;8.736;2022-08-19T13:14:24;28.40;50.20
54960;DHT22;40860;51.710;8.736;2022-08-19T13:18:27;28.40;49.20
54960;DHT22;40860;51.710;8.736;2022-08-19T13:22:30;28.60;49.40
54960;DHT22;40860;51.710;8.736;2022-08-19T13:26:35;28.70;49.20
54960;DHT22;40860;51.710;8.736;2022-08-19T13:30:37;28.80;49.30
54960;DHT22;40860;51.710;8.736;2022-08-19T13:34:58;28.90;49.00
54960;DHT22;40860;51.710;8.736;2022-08-19T13:39:00;28.90;48.70
54960;DHT22;40860;51.710;8.736;2022-08-19T13:43:05;29.00;48.60
54960;DHT22;40860;51.710;8.736;2022-08-19T13:47:24;29.20;48.80
54960;DHT22;40860;51.710;8.736;2022-08-19T13:51:27;29.00;48.30
54960;DHT22;40860;51.710;8.736;2022-08-19T13:55:30;28.80;48.70
54960;DHT22;40860;51.710;8.736;2022-08-19T13:59:34;28.20;49.30
54960;DHT22;40860;51.710;8.736;2022-08-19T14:03:37;27.90;50.00
54960;DHT22;40860;51.710;8.736;2022-08-19T14:07:40;27.90;50.90
54960;DHT22;40860;51.710;8.736;2022-08-19T14:11:43;27.80;50.70
54960;DHT22;40860;51.710;8.736;2022-08-19T14:15:49;27.90;50.80
54960;DHT22;40860;51.710;8.736;2022-08-19T14:19:56;27.80;50.60
54960;DHT22;40860;51.710;8.736;2022-08-19T14:24:04;27.70;51.10
54960;DHT22;40860;51.710;8.736;2022-08-19T14:28:07;28.10;50.30
54960;DHT22;40860;51.710;8.736;2022-08-19T14:32:12;28.50;49.50
54960;DHT22;40860;51.710;8.736;2022-08-19T14:36:17;28.80;48.90
54960;DHT22;40860;51.710;8.736;2022-08-19T14:40:23;29.10;48.30
54960;DHT22;40860;51.710;8.736;2022-08-19T14:44:28;29.20;47.20
54960;DHT22;40860;51.710;8.736;2022-08-19T14:48:36;29.50;47.00
54960;DHT22;40860;51.710;8.736;2022-08-19T14:52:42;29.80;47.00
54960;DHT22;40860;51.710;8.736;2022-08-19T14:56:45;30.10;45.50
54960;DHT22;40860;51.710;8.736;2022-08-19T15:00:47;30.30;45.00
54960;DHT22;40860;51.710;8.736;2022-08-19T15:04:52;30.30;45.10
54960;DHT22;40860;51.710;8.736;2022-08-19T15:09:00;30.10;45.50
54960;DHT22;40860;51.710;8.736;2022-08-19T15:13:05;29.90;46.10
54960;DHT22;40860;51.710;8.736;2022-08-19T15:17:08;29.50;47.10
54960;DHT22;40860;51.710;8.736;2022-08-19T15:21:14;29.00;48.10
54960;DHT22;40860;51.710;8.736;2022-08-19T15:25:27;28.50;48.70
54960;DHT22;40860;51.710;8.736;2022-08-19T15:29:30;28.20;49.20
54960;DHT22;40860;51.710;8.736;2022-08-19T15:33:34;28.10;49.60
54960;DHT22;40860;51.710;8.736;2022-08-19T15:37:39;28.40;49.50
54960;DHT22;40860;51.710;8.736;2022-08-19T15:41:43;28.50;48.80
54960;DHT22;40860;51.710;8.736;2022-08-19T15:45:47;28.60;48.70
54960;DHT22;40860;51.710;8.736;2022-08-19T15:49:50;28.70;48.70
54960;DHT22;40860;51.710;8.736;2022-08-19T15:54:01;28.80;47.70
54960;DHT22;40860;51.710;8.736;2022-08-19T15:58:07;28.90;48.70
54960;DHT22;40860;51.710;8.736;2022-08-19T16:02:30;28.70;47.60
54960;DHT22;40860;51.710;8.736;2022-08-19T16:06:56;28.80;48.10
54960;DHT22;40860;51.710;8.736;2022-08-19T16:11:00;28.70;47.90
54960;DHT22;40860;51.710;8.736;2022-08-19T16:15:04;29.10;48.10
54960;DHT22;40860;51.710;8.736;2022-08-19T16:19:08;29.50;47.00
54960;DHT22;40860;51.710;8.736;2022-08-19T16:23:12;29.60;46.90
54960;DHT22;40860;51.710;8.736;2022-08-19T16:27:17;29.80;47.40
54960;DHT22;40860;51.710;8.736;2022-08-19T16:31:20;29.70;46.10
54960;DHT22;40860;51.710;8.736;2022-08-19T16:35:22;30.00;45.60
54960;DHT22;40860;51.710;8.736;2022-08-19T16:39:25;30.00;45.50
54960;DHT22;40860;51.710;8.736;2022-08-19T16:43:30;29.70;45.50
54960;DHT22;40860;51.710;8.736;2022-08-19T16:47:33;29.50;45.80
54960;DHT22;40860;51.710;8.736;2022-08-19T16:51:36;29.20;46.50
54960;DHT22;40860;51.710;8.736;2022-08-19T16:55:39;28.80;46.80
54960;DHT22;40860;51.710;8.736;2022-08-19T16:59:44;28.60;47.40
54960;DHT22;40860;51.710;8.736;2022-08-19T17:03:50;28.40;48.00
54960;DHT22;40860;51.710;8.736;2022-08-19T17:07:53;28.00;48.60
54960;DHT22;40860;51.710;8.736;2022-08-19T17:11:56;27.70;49.10
54960;DHT22;40860;51.710;8.736;2022-08-19T17:16:01;27.70;49.60
54960;DHT22;40860;51.710;8.736;2022-08-19T17:20:04;27.60;49.60
54960;DHT22;40860;51.710;8.736;2022-08-19T17:24:08;27.50;49.80
54960;DHT22;40860;51.710;8.736;2022-08-19T17:28:13;27.40;50.00
54960;DHT22;40860;51.710;8.736;2022-08-19T17:32:17;27.30;50.10
54960;DHT22;40860;51.710;8.736;2022-08-19T17:36:29;27.30;50.10
54960;DHT22;40860;51.710;8.736;2022-08-19T17:40:32;27.10;50.50
54960;DHT22;40860;51.710;8.736;2022-08-19T17:44:37;27.00;50.50
54960;DHT22;40860;51.710;8.736;2022-08-19T17:48:42;27.00;50.60
54960;DHT22;40860;51.710;8.736;2022-08-19T17:52:51;26.90;50.70
54960;DHT22;40860;51.710;8.736;2022-08-19T17:56:54;26.80;50.90
54960;DHT22;40860;51.710;8.736;2022-08-19T18:00:58;26.60;51.00
54960;DHT22;40860;51.710;8.736;2022-08-19T18:05:05;26.50;51.40
54960;DHT22;40860;51.710;8.736;2022-08-19T18:09:08;26.50;51.60
54960;DHT22;40860;51.710;8.736;2022-08-19T18:13:10;26.30;51.80
54960;DHT22;40860;51.710;8.736;2022-08-19T18:17:19;26.10;52.10
54960;DHT22;40860;51.710;8.736;2022-08-19T18:21:25;26.00;52.60
54960;DHT22;40860;51.710;8.736;2022-08-19T18:25:32;25.80;53.10
54960;DHT22;40860;51.710;8.736;2022-08-19T18:29:35;25.70;53.70
54960;DHT22;40860;51.710;8.736;2022-08-19T18:33:39;25.50;53.90
54960;DHT22;40860;51.710;8.736;2022-08-19T18:37:47;25.30;54.40
54960;DHT22;40860;51.710;8.736;2022-08-19T18:41:50;25.20;54.80
54960;DHT22;40860;51.710;8.736;2022-08-19T18:46:10;25.10;55.10
54960;DHT22;40860;51.710;8.736;2022-08-19T18:50:37;25.00;55.50
54960;DHT22;40860;51.710;8.736;2022-08-19T18:54:44;24.80;55.80
54960;DHT22;40860;51.710;8.736;2022-08-19T18:58:47;24.70;56.30
54960;DHT22;40860;51.710;8.736;2022-08-19T19:02:50;24.60;56.80
54960;DHT22;40860;51.710;8.736;2022-08-19T19:06:55;24.50;57.20
54960;DHT22;40860;51.710;8.736;2022-08-19T19:11:00;24.30;57.70
54960;DHT22;40860;51.710;8.736;2022-08-19T19:15:06;24.20;58.40
54960;DHT22;40860;51.710;8.736;2022-08-19T19:19:09;24.00;58.90
54960;DHT22;40860;51.710;8.736;2022-08-19T19:23:14;23.90;59.00
54960;DHT22;40860;51.710;8.736;2022-08-19T19:27:18;23.90;59.30
54960;DHT22;40860;51.710;8.736;2022-08-19T19:31:24;23.80;59.70
54960;DHT22;40860;51.710;8.736;2022-08-19T19:35:27;23.80;60.00
54960;DHT22;40860;51.710;8.736;2022-08-19T19:39:31;23.70;60.20
54960;DHT22;40860;51.710;8.736;2022-08-19T19:43:49;23.70;60.80
54960;DHT22;40860;51.710;8.736;2022-08-19T19:48:12;23.60;61.10
54960;DHT22;40860;51.710;8.736;2022-08-19T19:52:17;23.60;61.40
54960;DHT22;40860;51.710;8.736;2022-08-19T19:56:21;23.60;61.30
54960;DHT22;40860;51.710;8.736;2022-08-19T20:00:25;23.60;61.30
54960;DHT22;40860;51.710;8.736;2022-08-19T20:04:30;23.60;61.30
54960;DHT22;40860;51.710;8.736;2022-08-19T20:08:33;23.50;61.90
54960;DHT22;40860;51.710;8.736;2022-08-19T20:12:53;23.40;61.90
54960;DHT22;40860;51.710;8.736;2022-08-19T20:16:58;23.40;62.50
54960;DHT22;40860;51.710;8.736;2022-08-19T20:21:01;23.30;62.70
54960;DHT22;40860;51.710;8.736;2022-08-19T20:25:05;23.30;62.90
54960;DHT22;40860;51.710;8.736;2022-08-19T20:29:08;23.30;63.00
54960;DHT22;40860;51.710;8.736;2022-08-19T20:33:32;23.30;63.00
54960;DHT22;40860;51.710;8.736;2022-08-19T20:37:35;23.30;63.10
54960;DHT22;40860;51.710;8.736;2022-08-19T20:41:39;23.30;63.30
54960;DHT22;40860;51.710;8.736;2022-08-19T20:45:42;23.30;62.90
54960;DHT22;40860;51.710;8.736;2022-08-19T20:49:46;23.30;62.90
54960;DHT22;40860;51.710;8.736;2022-08-19T20:53:49;23.30;62.80
54960;DHT22;40860;51.710;8.736;2022-08-19T20:57:52;23.30;62.30
54960;DHT22;40860;51.710;8.736;2022-08-19T21:01:55;23.30;62.80
54960;DHT22;40860;51.710;8.736;2022-08-19T21:05:59;23.30;62.90
54960;DHT22;40860;51.710;8.736;2022-08-19T21:10:03;23.20;62.70
54960;DHT22;40860;51.710;8.736;2022-08-19T21:14:07;23.20;62.70
54960;DHT22;40860;51.710;8.736;2022-08-19T21:18:12;23.10;63.10
54960;DHT22;40860;51.710;8.736;2022-08-19T21:22:17;23.10;63.10
54960;DHT22;40860;51.710;8.736;2022-08-19T21:26:20;22.90;63.40
54960;DHT22;40860;51.710;8.736;2022-08-19T21:30:23;22.90;63.50
54960;DHT22;40860;51.710;8.736;2022-08-19T21:34:26;22.80;63.90
54960;DHT22;40860;51.710;8.736;2022-08-19T21:38:30;22.80;64.70
54960;DHT22;40860;51.710;8.736;2022-08-19T21:42:33;22.70;65.80
54960;DHT22;40860;51.710;8.736;2022-08-19T21:46:36;22.70;66.40
54960;DHT22;40860;51.710;8.736;2022-08-19T21:50:39;22.60;66.90
54960;DHT22;40860;51.710;8.736;2022-08-19T21:54:43;22.50;66.70
54960;DHT22;40860;51.710;8.736;2022-08-19T21:58:46;22.40;66.90
54960;DHT22;40860;51.710;8.736;2022-08-19T22:02:49;22.30;67.00
54960;DHT22;40860;51.710;8.736;2022-08-19T22:06:53;22.30;67.60
54960;DHT22;40860;51.710;8.736;2022-08-19T22:10:57;22.20;68.00
54960;DHT22;40860;51.710;8.736;2022-08-19T22:15:02;22.10;68.50
54960;DHT22;40860;51.710;8.736;2022-08-19T22:19:06;22.10;69.10
54960;DHT22;40860;51.710;8.736;2022-08-19T22:23:09;22.10;69.50
54960;DHT22;40860;51.710;8.736;2022-08-19T22:27:13;22.00;70.00
54960;DHT22;40860;51.710;8.736;2022-08-19T22:31:16;21.90;70.20
54960;DHT22;40860;51.710;8.736;2022-08-19T22:35:22;21.80;70.70
54960;DHT22;40860;51.710;8.736;2022-08-19T22:39:25;21.70;70.70
54960;DHT22;40860;51.710;8.736;2022-08-19T22:43:30;21.60;71.40
54960;DHT22;40860;51.710;8.736;2022-08-19T22:47:35;21.60;71.60
54960;DHT22;40860;51.710;8.736;2022-08-19T22:51:40;21.60;72.10
54960;DHT22;40860;51.710;8.736;2022-08-19T22:56:00;21.50;73.00
54960;DHT22;40860;51.710;8.736;2022-08-19T23:00:06;21.60;73.40
54960;DHT22;40860;51.710;8.736;2022-08-19T23:04:11;21.60;73.80
54960;DHT22;40860;51.710;8.736;2022-08-19T23:08:14;21.50;74.20
54960;DHT22;40860;51.710;8.736;2022-08-19T23:12:29;21.50;74.90
54960;DHT22;40860;51.710;8.736;2022-08-19T23:16:33;21.50;75.00
54960;DHT22;40860;51.710;8.736;2022-08-19T23:20:38;21.50;75.80
54960;DHT22;40860;51.710;8.736;2022-08-19T23:24:41;21.40;76.20
54960;DHT22;40860;51.710;8.736;2022-08-19T23:28:44;21.30;77.00
54960;DHT22;40860;51.710;8.736;2022-08-19T23:33:14;21.20;77.00
54960;DHT22;40860;51.710;8.736;2022-08-19T23:37:19;21.20;77.50
54960;DHT22;40860;51.710;8.736;2022-08-19T23:41:22;21.20;78.00
54960;DHT22;40860;51.710;8.736;2022-08-19T23:45:28;21.20;78.30
54960;DHT22;40860;51.710;8.736;2022-08-19T23:49:35;21.00;79.10
54960;DHT22;40860;51.710;8.736;2022-08-19T23:53:39;20.90;79.20
54960;DHT22;40860;51.710;8.736;2022-08-19T23:57:42;20.90;80.10
